Airfield :
LOGIN :

Register | Disclaimer

   EN    FR    IT 

 










Legend :    VFR   Marginal VFR   IFR   Intensive IFR   Very Intensive IFR
Visi :
Ceiling :
>= 8 km
>= 3000ft
5 to 8 km
1000 to 3000 ft
1500m to 5 km
500 to 1000 ft
800 to 1500m
200 to 500 ft
< 800m
< 200 ft
Symbols :   Thunderstorms  Fog  Heavy snow  Heavy precipitations  Wind > 20 kt
SIGMETs :     Misc.  Thunderstorms  Icing  Turbulence  Mountain Waves  Volcanic Ashes






- Airport Elevation : 13 ft
- IATA code : SNR


LFRZ - St-Nazaire

CURRENT METAR :
  • 241100Z AUTO 07007KT 2000 BR OVC003 03/03 Q1021 NOSIG

EXPIRED METARs :
  • 241030Z AUTO 09006KT 3100 BR OVC005 03/03 Q1021 TEMPO 2000 -DZRA
  • 241000Z AUTO 09010KT 2900 BR OVC006 03/02 Q1021 TEMPO OVC002
  • 240930Z AUTO 08006KT 3400 BR OVC006 03/02 Q1021 TEMPO 2000 -DZRA OVC002
  • 240900Z AUTO 07007KT 4100 BR OVC007 02/01 Q1021 TEMPO 2000 -DZRA OVC002
  • 240830Z AUTO 06007KT 4200 BR OVC009 01/01 Q1021 TEMPO 2000 -DZRA OVC002

TAF TAF LFRZ
Valid from the 24 at 06:00 until the 25 at 06:00 UTC


240500Z 2406/2506 06006KT 6000 BKN040
BECMG 2406/2408 4000 BR BKN006
TEMPO 2408/2418 2000 -DZRA OVC002
TEMPO 2421/2506 0600 FG VV///



MET'MAP, your aeronautical weather chart ! - Copyright ORBIFLY December 2007 - Disclaimer

ORBIFLY MET'MAP TEAM :

Programming & Development : Alexandra Zaïnal
Concept & original design : Baudouin d'Aumeries
Assistance for programming : Marc-Olivier Méhu
Technical & hardware support : Manuel Goepfert

Contact : metmap@orbifly.com




SOURCES & CREDITS :

   NOAA